sensor_id;sensor_type;location;lat;lon;timestamp;pressure;altitude;pressure_sealevel;temperature
65272;BMP280;51868;48.812;8.198;2023-04-24T05:20:18;99533.69;;;11.69
65272;BMP280;51868;48.812;8.198;2023-04-24T05:22:55;99530.84;;;11.67
65272;BMP280;51868;48.812;8.198;2023-04-24T05:25:37;99543.31;;;11.66
65272;BMP280;51868;48.812;8.198;2023-04-24T05:28:09;99543.25;;;11.64
65272;BMP280;51868;48.812;8.198;2023-04-24T05:30:52;99548.09;;;11.63
65272;BMP280;51868;48.812;8.198;2023-04-24T05:33:22;99543.25;;;11.64
65272;BMP280;51868;48.812;8.198;2023-04-24T05:35:57;99549.50;;;11.64
65272;BMP280;51868;48.812;8.198;2023-04-24T05:38:27;99548.81;;;11.64
65272;BMP280;51868;48.812;8.198;2023-04-24T05:40:54;99548.09;;;11.63
65272;BMP280;51868;48.812;8.198;2023-04-24T05:43:54;99552.88;;;11.61
65272;BMP280;51868;48.812;8.198;2023-04-24T05:46:21;99560.63;;;11.64
65272;BMP280;51868;48.812;8.198;2023-04-24T05:48:49;99568.97;;;11.64
65272;BMP280;51868;48.812;8.198;2023-04-24T05:51:18;99562.69;;;11.64
65272;BMP280;51868;48.812;8.198;2023-04-24T05:53:45;99567.53;;;11.63
65272;BMP280;51868;48.812;8.198;2023-04-24T05:56:28;99571.03;;;11.64
65272;BMP280;51868;48.812;8.198;2023-04-24T05:58:56;99569.63;;;11.63
65272;BMP280;51868;48.812;8.198;2023-04-24T06:01:23;99573.88;;;11.66
65272;BMP280;51868;48.812;8.198;2023-04-24T06:03:51;99589.97;;;11.69
65272;BMP280;51868;48.812;8.198;2023-04-24T06:06:24;99578.88;;;11.69
65272;BMP280;51868;48.812;8.198;2023-04-24T06:08:51;99585.13;;;11.70
65272;BMP280;51868;48.812;8.198;2023-04-24T06:11:19;99579.53;;;11.68
65272;BMP280;51868;48.812;8.198;2023-04-24T06:13:47;99589.28;;;11.69
65272;BMP280;51868;48.812;8.198;2023-04-24T06:16:16;99578.19;;;11.71
65272;BMP280;51868;48.812;8.198;2023-04-24T06:18:43;99585.19;;;11.72
65272;BMP280;51868;48.812;8.198;2023-04-24T06:21:13;99593.66;;;11.76
65272;BMP280;51868;48.812;8.198;2023-04-24T06:23:42;99589.53;;;11.77
65272;BMP280;51868;48.812;8.198;2023-04-24T06:26:10;99590.97;;;11.78
65272;BMP280;51868;48.812;8.198;2023-04-24T06:28:37;99601.28;;;11.75
65272;BMP280;51868;48.812;8.198;2023-04-24T06:31:05;99608.16;;;11.72
65272;BMP280;51868;48.812;8.198;2023-04-24T06:33:32;99610.41;;;11.78
65272;BMP280;51868;48.812;8.198;2023-04-24T06:36:00;99609.88;;;11.84
65272;BMP280;51868;48.812;8.198;2023-04-24T06:38:27;99610.88;;;11.92
65272;BMP280;51868;48.812;8.198;2023-04-24T06:40:57;99609.38;;;11.89
65272;BMP280;51868;48.812;8.198;2023-04-24T06:43:24;99615.72;;;11.92
65272;BMP280;51868;48.812;8.198;2023-04-24T06:45:52;99616.34;;;11.90
65272;BMP280;51868;48.812;8.198;2023-04-24T06:48:19;99617.72;;;11.89
65272;BMP280;51868;48.812;8.198;2023-04-24T06:50:47;99627.41;;;11.88
65272;BMP280;51868;48.812;8.198;2023-04-24T06:53:14;99631.53;;;11.87
65272;BMP280;51868;48.812;8.198;2023-04-24T06:55:42;99630.84;;;11.87
65272;BMP280;51868;48.812;8.198;2023-04-24T06:58:12;99630.44;;;11.96
65272;BMP280;51868;48.812;8.198;2023-04-24T07:00:40;99631.34;;;12.03
65272;BMP280;51868;48.812;8.198;2023-04-24T07:03:08;99636.22;;;12.02
65272;BMP280;51868;48.812;8.198;2023-04-24T07:05:36;99642.47;;;12.03
65272;BMP280;51868;48.812;8.198;2023-04-24T07:08:04;99638.25;;;12.00
65272;BMP280;51868;48.812;8.198;2023-04-24T07:10:32;99643.13;;;12.01
65272;BMP280;51868;48.812;8.198;2023-04-24T07:13:01;99654.38;;;12.05
65272;BMP280;51868;48.812;8.198;2023-04-24T07:15:30;99649.13;;;12.16
65272;BMP280;51868;48.812;8.198;2023-04-24T07:17:58;99655.63;;;12.46
65272;BMP280;51868;48.812;8.198;2023-04-24T07:20:27;99658.47;;;12.72
65272;BMP280;51868;48.812;8.198;2023-04-24T07:22:55;99650.22;;;13.00
65272;BMP280;51868;48.812;8.198;2023-04-24T07:25:22;99655.81;;;13.27
65272;BMP280;51868;48.812;8.198;2023-04-24T07:27:53;99667.44;;;13.45
65272;BMP280;51868;48.812;8.198;2023-04-24T07:30:20;99657.47;;;13.64
65272;BMP280;51868;48.812;8.198;2023-04-24T07:32:49;99663.66;;;13.90
65272;BMP280;51868;48.812;8.198;2023-04-24T07:35:16;99655.22;;;14.16
65272;BMP280;51868;48.812;8.198;2023-04-24T07:37:44;99657.25;;;14.46
65272;BMP280;51868;48.812;8.198;2023-04-24T07:40:12;99656.81;;;14.58
65272;BMP280;51868;48.812;8.198;2023-04-24T07:42:40;99670.41;;;14.41
65272;BMP280;51868;48.812;8.198;2023-04-24T07:45:07;99691.63;;;14.23
65272;BMP280;51868;48.812;8.198;2023-04-24T07:47:35;99690.56;;;14.06
65272;BMP280;51868;48.812;8.198;2023-04-24T07:50:05;99696.50;;;13.92
65272;BMP280;51868;48.812;8.198;2023-04-24T07:52:39;99700.97;;;13.77
65272;BMP280;51868;48.812;8.198;2023-04-24T07:55:06;99711.66;;;13.57
65272;BMP280;51868;48.812;8.198;2023-04-24T07:57:34;99708.16;;;13.30
65272;BMP280;51868;48.812;8.198;2023-04-24T08:00:08;99717.41;;;13.13
65272;BMP280;51868;48.812;8.198;2023-04-24T08:02:37;99718.59;;;13.06
65272;BMP280;51868;48.812;8.198;2023-04-24T08:05:06;99724.78;;;13.02
65272;BMP280;51868;48.812;8.198;2023-04-24T08:07:34;99721.88;;;12.98
65272;BMP280;51868;48.812;8.198;2023-04-24T08:10:02;99732.06;;;12.89
65272;BMP280;51868;48.812;8.198;2023-04-24T08:12:30;99736.81;;;12.85
65272;BMP280;51868;48.812;8.198;2023-04-24T08:15:15;99730.47;;;12.82
65272;BMP280;51868;48.812;8.198;2023-04-24T08:17:52;99735.31;;;12.82
65272;BMP280;51868;48.812;8.198;2023-04-24T08:20:22;99749.72;;;12.74
65272;BMP280;51868;48.812;8.198;2023-04-24T08:22:50;99756.47;;;12.67
65272;BMP280;51868;48.812;8.198;2023-04-24T08:25:17;99765.91;;;12.58
65272;BMP280;51868;48.812;8.198;2023-04-24T08:27:45;99763.13;;;12.58
65272;BMP280;51868;48.812;8.198;2023-04-24T08:30:15;99764.53;;;12.59
65272;BMP280;51868;48.812;8.198;2023-04-24T08:32:43;99777.09;;;12.60
65272;BMP280;51868;48.812;8.198;2023-04-24T08:35:10;99777.25;;;12.64
65272;BMP280;51868;48.812;8.198;2023-04-24T08:37:40;99768.31;;;12.67
65272;BMP280;51868;48.812;8.198;2023-04-24T08:40:11;99774.84;;;12.76
65272;BMP280;51868;48.812;8.198;2023-04-24T08:42:39;99769.56;;;12.86
65272;BMP280;51868;48.812;8.198;2023-04-24T08:45:09;99762.81;;;12.93
65272;BMP280;51868;48.812;8.198;2023-04-24T08:47:37;99764.28;;;12.96
65272;BMP280;51868;48.812;8.198;2023-04-24T08:50:05;99769.22;;;12.98
65272;BMP280;51868;48.812;8.198;2023-04-24T08:52:34;99774.91;;;13.02
65272;BMP280;51868;48.812;8.198;2023-04-24T08:55:03;99777.06;;;13.04
65272;BMP280;51868;48.812;8.198;2023-04-24T08:57:32;99788.28;;;13.08
65272;BMP280;51868;48.812;8.198;2023-04-24T08:59:59;99791.34;;;13.16
65272;BMP280;51868;48.812;8.198;2023-04-24T09:02:27;99788.72;;;13.22
65272;BMP280;51868;48.812;8.198;2023-04-24T09:04:56;99801.53;;;13.31
65272;BMP280;51868;48.812;8.198;2023-04-24T09:07:23;99800.81;;;13.31
65272;BMP280;51868;48.812;8.198;2023-04-24T09:09:52;99805.50;;;13.24
65272;BMP280;51868;48.812;8.198;2023-04-24T09:12:21;99796.28;;;13.19
65272;BMP280;51868;48.812;8.198;2023-04-24T09:14:49;99800.88;;;13.09
65272;BMP280;51868;48.812;8.198;2023-04-24T09:17:17;99792.94;;;12.99
65272;BMP280;51868;48.812;8.198;2023-04-24T09:19:45;99808.22;;;12.98
65272;BMP280;51868;48.812;8.198;2023-04-24T09:22:15;99803.13;;;12.90
65272;BMP280;51868;48.812;8.198;2023-04-24T09:24:42;99803.56;;;12.83
65272;BMP280;51868;48.812;8.198;2023-04-24T09:27:10;99797.47;;;12.88
65272;BMP280;51868;48.812;8.198;2023-04-24T09:29:40;99797.09;;;12.98
65272;BMP280;51868;48.812;8.198;2023-04-24T09:32:20;99799.63;;;13.14
65272;BMP280;51868;48.812;8.198;2023-04-24T09:35:04;99808.28;;;13.24
65272;BMP280;51868;48.812;8.198;2023-04-24T09:37:36;99813.91;;;13.26
65272;BMP280;51868;48.812;8.198;2023-04-24T09:40:13;99813.25;;;13.28
65272;BMP280;51868;48.812;8.198;2023-04-24T09:42:44;99814.41;;;13.18
65272;BMP280;51868;48.812;8.198;2023-04-24T09:45:23;99820.44;;;13.11
65272;BMP280;51868;48.812;8.198;2023-04-24T09:48:08;99819.47;;;13.02
65272;BMP280;51868;48.812;8.198;2023-04-24T09:50:36;99828.34;;;12.96
65272;BMP280;51868;48.812;8.198;2023-04-24T09:53:04;99830.25;;;12.90
65272;BMP280;51868;48.812;8.198;2023-04-24T09:55:38;99829.34;;;12.83
65272;BMP280;51868;48.812;8.198;2023-04-24T09:58:07;99837.63;;;12.81
65272;BMP280;51868;48.812;8.198;2023-04-24T10:00:36;99834.13;;;12.81
65272;BMP280;51868;48.812;8.198;2023-04-24T10:03:04;99839.25;;;12.88
65272;BMP280;51868;48.812;8.198;2023-04-24T10:05:33;99842.31;;;12.98
65272;BMP280;51868;48.812;8.198;2023-04-24T10:08:02;99835.00;;;13.09
65272;BMP280;51868;48.812;8.198;2023-04-24T10:10:35;99846.28;;;13.13
65272;BMP280;51868;48.812;8.198;2023-04-24T10:13:04;99849.66;;;13.10
65272;BMP280;51868;48.812;8.198;2023-04-24T10:15:46;99846.22;;;13.11
65272;BMP280;51868;48.812;8.198;2023-04-24T10:18:14;99842.78;;;13.13
65272;BMP280;51868;48.812;8.198;2023-04-24T10:20:43;99847.56;;;13.10
65272;BMP280;51868;48.812;8.198;2023-04-24T10:23:10;99856.47;;;13.05
65272;BMP280;51868;48.812;8.198;2023-04-24T10:25:38;99856.94;;;12.97
65272;BMP280;51868;48.812;8.198;2023-04-24T10:28:05;99859.53;;;12.91
65272;BMP280;51868;48.812;8.198;2023-04-24T10:30:39;99861.72;;;12.94
65272;BMP280;51868;48.812;8.198;2023-04-24T10:33:11;99850.31;;;13.08
65272;BMP280;51868;48.812;8.198;2023-04-24T10:35:40;99861.81;;;13.20
65272;BMP280;51868;48.812;8.198;2023-04-24T10:38:12;99855.13;;;13.30
65272;BMP280;51868;48.812;8.198;2023-04-24T10:40:40;99854.59;;;13.35
65272;BMP280;51868;48.812;8.198;2023-04-24T10:43:09;99851.72;;;13.33
65272;BMP280;51868;48.812;8.198;2023-04-24T10:45:38;99857.22;;;13.29
65272;BMP280;51868;48.812;8.198;2023-04-24T10:48:06;99864.75;;;13.24
65272;BMP280;51868;48.812;8.198;2023-04-24T10:50:45;99859.63;;;13.17
65272;BMP280;51868;48.812;8.198;2023-04-24T10:53:13;99855.25;;;13.12
65272;BMP280;51868;48.812;8.198;2023-04-24T10:55:42;99863.44;;;13.06
65272;BMP280;51868;48.812;8.198;2023-04-24T10:58:09;99870.13;;;12.96
65272;BMP280;51868;48.812;8.198;2023-04-24T11:00:37;99876.94;;;12.91
65272;BMP280;51868;48.812;8.198;2023-04-24T11:03:05;99878.31;;;12.90
65272;BMP280;51868;48.812;8.198;2023-04-24T11:08:23;99880.66;;;12.76
65272;BMP280;51868;48.812;8.198;2023-04-24T11:10:55;99885.84;;;12.66
65272;BMP280;51868;48.812;8.198;2023-04-24T11:13:24;99888.59;;;12.64
65272;BMP280;51868;48.812;8.198;2023-04-24T11:18:41;99898.09;;;12.57
65272;BMP280;51868;48.812;8.198;2023-04-24T11:21:11;99903.56;;;12.55
65272;BMP280;51868;48.812;8.198;2023-04-24T11:23:40;99895.75;;;12.49
65272;BMP280;51868;48.812;8.198;2023-04-24T11:26:11;99909.50;;;12.45
65272;BMP280;51868;48.812;8.198;2023-04-24T11:28:44;99914.44;;;12.46
65272;BMP280;51868;48.812;8.198;2023-04-24T11:33:57;99912.13;;;12.61
65272;BMP280;51868;48.812;8.198;2023-04-24T11:36:32;99905.69;;;12.76
65272;BMP280;51868;48.812;8.198;2023-04-24T11:39:02;99907.50;;;12.89
65272;BMP280;51868;48.812;8.198;2023-04-24T11:41:30;99907.78;;;12.97
65272;BMP280;51868;48.812;8.198;2023-04-24T11:43:57;99913.47;;;13.02
65272;BMP280;51868;48.812;8.198;2023-04-24T11:46:28;99917.09;;;13.06
65272;BMP280;51868;48.812;8.198;2023-04-24T11:48:56;99903.28;;;13.10
65272;BMP280;51868;48.812;8.198;2023-04-24T11:51:24;99905.41;;;13.12
65272;BMP280;51868;48.812;8.198;2023-04-24T11:53:58;99915.88;;;13.11
65272;BMP280;51868;48.812;8.198;2023-04-24T11:56:31;99913.72;;;13.10
65272;BMP280;51868;48.812;8.198;2023-04-24T11:58:58;99918.44;;;13.05
65272;BMP280;51868;48.812;8.198;2023-04-24T12:01:26;99919.03;;;13.02
65272;BMP280;51868;48.812;8.198;2023-04-24T12:03:58;99921.84;;;13.02
65272;BMP280;51868;48.812;8.198;2023-04-24T12:06:27;99915.59;;;13.03
65272;BMP280;51868;48.812;8.198;2023-04-24T12:08:54;99924.69;;;13.04
65272;BMP280;51868;48.812;8.198;2023-04-24T12:11:31;99924.63;;;13.02
65272;BMP280;51868;48.812;8.198;2023-04-24T12:14:09;99931.53;;;13.00
65272;BMP280;51868;48.812;8.198;2023-04-24T12:16:36;99930.78;;;12.98
65272;BMP280;51868;48.812;8.198;2023-04-24T12:19:04;99941.03;;;12.93
65272;BMP280;51868;48.812;8.198;2023-04-24T12:21:32;99935.34;;;12.89
65272;BMP280;51868;48.812;8.198;2023-04-24T12:24:01;99926.88;;;12.85
65272;BMP280;51868;48.812;8.198;2023-04-24T12:26:28;99917.69;;;12.81
65272;BMP280;51868;48.812;8.198;2023-04-24T12:29:00;99923.38;;;12.85
65272;BMP280;51868;48.812;8.198;2023-04-24T12:31:28;99926.63;;;12.99
65272;BMP280;51868;48.812;8.198;2023-04-24T12:34:02;99917.09;;;13.06
65272;BMP280;51868;48.812;8.198;2023-04-24T12:36:29;99928.56;;;13.16
65272;BMP280;51868;48.812;8.198;2023-04-24T12:38:57;99925.63;;;13.34
65272;BMP280;51868;48.812;8.198;2023-04-24T12:41:24;99916.16;;;13.43
65272;BMP280;51868;48.812;8.198;2023-04-24T12:43:52;99918.44;;;13.51
65272;BMP280;51868;48.812;8.198;2023-04-24T12:46:22;99906.88;;;13.61
65272;BMP280;51868;48.812;8.198;2023-04-24T12:48:49;99901.75;;;13.75
65272;BMP280;51868;48.812;8.198;2023-04-24T12:51:17;99908.91;;;13.82
65272;BMP280;51868;48.812;8.198;2023-04-24T12:53:45;99897.22;;;13.88
65272;BMP280;51868;48.812;8.198;2023-04-24T12:56:13;99909.97;;;13.95
65272;BMP280;51868;48.812;8.198;2023-04-24T12:58:40;99897.81;;;14.10
65272;BMP280;51868;48.812;8.198;2023-04-24T13:01:07;99894.81;;;14.28
65272;BMP280;51868;48.812;8.198;2023-04-24T13:03:36;99904.84;;;14.39
65272;BMP280;51868;48.812;8.198;2023-04-24T13:06:13;99908.50;;;14.46
65272;BMP280;51868;48.812;8.198;2023-04-24T13:08:54;99899.38;;;14.43
65272;BMP280;51868;48.812;8.198;2023-04-24T13:11:24;99922.81;;;14.32
65272;BMP280;51868;48.812;8.198;2023-04-24T13:13:51;99916.06;;;14.15
65272;BMP280;51868;48.812;8.198;2023-04-24T13:16:20;99921.47;;;14.09
65272;BMP280;51868;48.812;8.198;2023-04-24T13:18:50;99914.88;;;13.96
65272;BMP280;51868;48.812;8.198;2023-04-24T13:21:18;99921.69;;;13.89
65272;BMP280;51868;48.812;8.198;2023-04-24T13:23:45;99924.16;;;13.79
65272;BMP280;51868;48.812;8.198;2023-04-24T13:26:13;99933.66;;;13.70
65272;BMP280;51868;48.812;8.198;2023-04-24T13:28:41;99927.91;;;13.64
65272;BMP280;51868;48.812;8.198;2023-04-24T13:31:08;99920.19;;;13.62
65272;BMP280;51868;48.812;8.198;2023-04-24T13:33:36;99909.88;;;13.67
65272;BMP280;51868;48.812;8.198;2023-04-24T13:36:05;99908.50;;;13.68
65272;BMP280;51868;48.812;8.198;2023-04-24T13:38:33;99904.22;;;13.65
65272;BMP280;51868;48.812;8.198;2023-04-24T13:41:00;99901.31;;;13.61
65272;BMP280;51868;48.812;8.198;2023-04-24T13:43:29;99892.91;;;13.59
65272;BMP280;51868;48.812;8.198;2023-04-24T13:49:10;99905.06;;;13.45
65272;BMP280;51868;48.812;8.198;2023-04-24T13:51:42;99892.38;;;13.40
65272;BMP280;51868;48.812;8.198;2023-04-24T13:54:10;99897.94;;;13.40
65272;BMP280;51868;48.812;8.198;2023-04-24T13:56:49;99900.72;;;13.40
65272;BMP280;51868;48.812;8.198;2023-04-24T13:59:24;99916.72;;;13.40
65272;BMP280;51868;48.812;8.198;2023-04-24T14:01:53;99908.19;;;13.34
65272;BMP280;51868;48.812;8.198;2023-04-24T14:04:41;99892.97;;;13.15
65272;BMP280;51868;48.812;8.198;2023-04-24T14:07:11;99900.75;;;12.96
65272;BMP280;51868;48.812;8.198;2023-04-24T14:09:38;99894.16;;;12.86
65272;BMP280;51868;48.812;8.198;2023-04-24T14:12:12;99892.41;;;12.74
65272;BMP280;51868;48.812;8.198;2023-04-24T14:14:55;99890.06;;;12.67
65272;BMP280;51868;48.812;8.198;2023-04-24T14:17:23;99887.78;;;12.61
65272;BMP280;51868;48.812;8.198;2023-04-24T14:19:51;99889.16;;;12.60
65272;BMP280;51868;48.812;8.198;2023-04-24T14:22:23;99884.94;;;12.59
65272;BMP280;51868;48.812;8.198;2023-04-24T14:24:51;99891.22;;;12.60
65272;BMP280;51868;48.812;8.198;2023-04-24T14:27:19;99889.16;;;12.60
65272;BMP280;51868;48.812;8.198;2023-04-24T14:29:46;99889.78;;;12.59
65272;BMP280;51868;48.812;8.198;2023-04-24T14:32:14;99879.97;;;12.56
65272;BMP280;51868;48.812;8.198;2023-04-24T14:34:42;99889.59;;;12.52
65272;BMP280;51868;48.812;8.198;2023-04-24T14:37:10;99889.59;;;12.52
65272;BMP280;51868;48.812;8.198;2023-04-24T14:39:39;99889.59;;;12.52
65272;BMP280;51868;48.812;8.198;2023-04-24T14:42:06;99886.97;;;12.57
65272;BMP280;51868;48.812;8.198;2023-04-24T14:44:34;99877.38;;;12.62
65272;BMP280;51868;48.812;8.198;2023-04-24T14:47:01;99881.72;;;12.67
65272;BMP280;51868;48.812;8.198;2023-04-24T14:49:29;99872.91;;;12.74
65272;BMP280;51868;48.812;8.198;2023-04-24T14:51:56;99879.47;;;12.83
65272;BMP280;51868;48.812;8.198;2023-04-24T14:54:24;99875.56;;;12.92
65272;BMP280;51868;48.812;8.198;2023-04-24T14:56:53;99870.31;;;13.03
65272;BMP280;51868;48.812;8.198;2023-04-24T14:59:23;99860.16;;;13.11
65272;BMP280;51868;48.812;8.198;2023-04-24T15:01:50;99861.06;;;13.18
65272;BMP280;51868;48.812;8.198;2023-04-24T15:04:30;99859.09;;;13.22
65272;BMP280;51868;48.812;8.198;2023-04-24T15:06:58;99873.75;;;13.23
65272;BMP280;51868;48.812;8.198;2023-04-24T15:09:26;99871.59;;;13.21
65272;BMP280;51868;48.812;8.198;2023-04-24T15:11:55;99875.09;;;13.22
65272;BMP280;51868;48.812;8.198;2023-04-24T15:14:23;99870.25;;;13.22
65272;BMP280;51868;48.812;8.198;2023-04-24T15:16:51;99870.94;;;13.23
65272;BMP280;51868;48.812;8.198;2023-04-24T15:19:19;99869.69;;;13.28
65272;BMP280;51868;48.812;8.198;2023-04-24T15:21:47;99862.22;;;13.35
65272;BMP280;51868;48.812;8.198;2023-04-24T15:24:14;99861.72;;;13.40
65272;BMP280;51868;48.812;8.198;2023-04-24T15:26:42;99854.94;;;13.47
65272;BMP280;51868;48.812;8.198;2023-04-24T15:29:11;99860.69;;;13.54
65272;BMP280;51868;48.812;8.198;2023-04-24T15:31:39;99855.19;;;13.56
65272;BMP280;51868;48.812;8.198;2023-04-24T15:34:06;99844.72;;;13.56
65272;BMP280;51868;48.812;8.198;2023-04-24T15:36:34;99848.19;;;13.55
65272;BMP280;51868;48.812;8.198;2023-04-24T15:39:02;99850.31;;;13.56
65272;BMP280;51868;48.812;8.198;2023-04-24T15:41:32;99853.28;;;13.62
65272;BMP280;51868;48.812;8.198;2023-04-24T15:43:59;99840.09;;;13.65
65272;BMP280;51868;48.812;8.198;2023-04-24T15:46:29;99845.81;;;13.69
65272;BMP280;51868;48.812;8.198;2023-04-24T15:48:57;99849.94;;;13.68
65272;BMP280;51868;48.812;8.198;2023-04-24T15:51:24;99849.22;;;13.67
65272;BMP280;51868;48.812;8.198;2023-04-24T15:53:52;99842.94;;;13.67
65272;BMP280;51868;48.812;8.198;2023-04-24T15:56:20;99837.47;;;13.71
65272;BMP280;51868;48.812;8.198;2023-04-24T15:58:48;99836.06;;;13.70
65272;BMP280;51868;48.812;8.198;2023-04-24T16:01:15;99834.69;;;13.71
65272;BMP280;51868;48.812;8.198;2023-04-24T16:03:44;99842.38;;;13.72
65272;BMP280;51868;48.812;8.198;2023-04-24T16:06:12;99836.16;;;13.74
65272;BMP280;51868;48.812;8.198;2023-04-24T16:08:40;99837.63;;;13.77
65272;BMP280;51868;48.812;8.198;2023-04-24T16:11:08;99838.34;;;13.78
65272;BMP280;51868;48.812;8.198;2023-04-24T16:13:36;99836.97;;;13.79
65272;BMP280;51868;48.812;8.198;2023-04-24T16:16:03;99834.16;;;13.77
65272;BMP280;51868;48.812;8.198;2023-04-24T16:18:31;99841.16;;;13.78
65272;BMP280;51868;48.812;8.198;2023-04-24T16:21:01;99844.00;;;13.80
65272;BMP280;51868;48.812;8.198;2023-04-24T16:23:28;99844.78;;;13.82
65272;BMP280;51868;48.812;8.198;2023-04-24T16:25:56;99843.38;;;13.83
65272;BMP280;51868;48.812;8.198;2023-04-24T16:28:24;99844.94;;;13.88
65272;BMP280;51868;48.812;8.198;2023-04-24T16:30:53;99855.53;;;13.94
65272;BMP280;51868;48.812;8.198;2023-04-24T16:33:21;99856.28;;;13.96
65272;BMP280;51868;48.812;8.198;2023-04-24T16:35:48;99852.13;;;13.97
65272;BMP280;51868;48.812;8.198;2023-04-24T16:38:18;99855.66;;;13.98
65272;BMP280;51868;48.812;8.198;2023-04-24T16:40:45;99847.31;;;14.00
65272;BMP280;51868;48.812;8.198;2023-04-24T16:43:14;99845.28;;;14.01
65272;BMP280;51868;48.812;8.198;2023-04-24T16:45:41;99850.84;;;14.01
65272;BMP280;51868;48.812;8.198;2023-04-24T16:48:09;99850.09;;;14.00
65272;BMP280;51868;48.812;8.198;2023-04-24T16:50:38;99845.19;;;13.99
65272;BMP280;51868;48.812;8.198;2023-04-24T16:53:12;99851.31;;;13.93
65272;BMP280;51868;48.812;8.198;2023-04-24T16:55:42;99849.25;;;13.93
65272;BMP280;51868;48.812;8.198;2023-04-24T16:58:11;99843.00;;;13.95
65272;BMP280;51868;48.812;8.198;2023-04-24T17:00:39;99854.16;;;13.95
65272;BMP280;51868;48.812;8.198;2023-04-24T17:03:07;99850.66;;;13.94
65272;BMP280;51868;48.812;8.198;2023-04-24T17:05:37;99847.94;;;13.96
65272;BMP280;51868;48.812;8.198;2023-04-24T17:08:05;99846.56;;;13.97
65272;BMP280;51868;48.812;8.198;2023-04-24T17:10:33;99843.06;;;13.97
65272;BMP280;51868;48.812;8.198;2023-04-24T17:13:04;99852.03;;;13.93
65272;BMP280;51868;48.812;8.198;2023-04-24T17:15:34;99858.28;;;13.92
65272;BMP280;51868;48.812;8.198;2023-04-24T17:18:02;99855.31;;;13.86
65272;BMP280;51868;48.812;8.198;2023-04-24T17:20:31;99851.75;;;13.83
65272;BMP280;51868;48.812;8.198;2023-04-24T17:22:58;99850.34;;;13.82
65272;BMP280;51868;48.812;8.198;2023-04-24T17:25:27;99849.63;;;13.82
65272;BMP280;51868;48.812;8.198;2023-04-24T17:27:55;99853.06;;;13.80
65272;BMP280;51868;48.812;8.198;2023-04-24T17:30:24;99856.56;;;13.81
65272;BMP280;51868;48.812;8.198;2023-04-24T17:32:52;99855.88;;;13.80
65272;BMP280;51868;48.812;8.198;2023-04-24T17:35:20;99848.13;;;13.79
65272;BMP280;51868;48.812;8.198;2023-04-24T17:37:48;99853.72;;;13.79
65272;BMP280;51868;48.812;8.198;2023-04-24T17:40:16;99846.06;;;13.79
65272;BMP280;51868;48.812;8.198;2023-04-24T17:42:44;99853.72;;;13.79
65272;BMP280;51868;48.812;8.198;2023-04-24T17:45:14;99850.88;;;13.77
65272;BMP280;51868;48.812;8.198;2023-04-24T17:48:14;99854.28;;;13.73
65272;BMP280;51868;48.812;8.198;2023-04-24T17:50:42;99852.00;;;13.67
65272;BMP280;51868;48.812;8.198;2023-04-24T17:53:10;99849.84;;;13.64
65272;BMP280;51868;48.812;8.198;2023-04-24T17:55:39;99854.59;;;13.59
65272;BMP280;51868;48.812;8.198;2023-04-24T17:58:09;99850.97;;;13.55
65272;BMP280;51868;48.812;8.198;2023-04-24T18:00:37;99858.53;;;13.50
65272;BMP280;51868;48.812;8.198;2023-04-24T18:03:05;99859.69;;;13.43
65272;BMP280;51868;48.812;8.198;2023-04-24T18:05:35;99862.31;;;13.37
65272;BMP280;51868;48.812;8.198;2023-04-24T18:08:04;99860.81;;;13.34
65272;BMP280;51868;48.812;8.198;2023-04-24T18:10:32;99866.84;;;13.26
65272;BMP280;51868;48.812;8.198;2023-04-24T18:13:13;99864.59;;;13.20
65272;BMP280;51868;48.812;8.198;2023-04-24T18:18:29;99871.97;;;13.12
65272;BMP280;51868;48.812;8.198;2023-04-24T18:20:58;99870.53;;;13.09
65272;BMP280;51868;48.812;8.198;2023-04-24T18:26:15;99880.06;;;13.02
65272;BMP280;51868;48.812;8.198;2023-04-24T18:28:43;99887.63;;;12.99
65272;BMP280;51868;48.812;8.198;2023-04-24T18:31:11;99886.84;;;12.96
65272;BMP280;51868;48.812;8.198;2023-04-24T18:33:39;99885.28;;;12.91
65272;BMP280;51868;48.812;8.198;2023-04-24T18:36:10;99885.16;;;12.87
65272;BMP280;51868;48.812;8.198;2023-04-24T18:38:38;99883.69;;;12.84
65272;BMP280;51868;48.812;8.198;2023-04-24T18:41:05;99894.66;;;12.80
65272;BMP280;51868;48.812;8.198;2023-04-24T18:43:33;99889.72;;;12.76
65272;BMP280;51868;48.812;8.198;2023-04-24T18:46:01;99890.25;;;12.73
65272;BMP280;51868;48.812;8.198;2023-04-24T18:48:29;99893.66;;;12.69
65272;BMP280;51868;48.812;8.198;2023-04-24T18:50:59;99888.59;;;12.64
65272;BMP280;51868;48.812;8.198;2023-04-24T18:53:28;99890.56;;;12.61
65272;BMP280;51868;48.812;8.198;2023-04-24T18:55:58;99894.00;;;12.60
65272;BMP280;51868;48.812;8.198;2023-04-24T18:58:26;99905.03;;;12.56
65272;BMP280;51868;48.812;8.198;2023-04-24T19:00:54;99904.88;;;12.51
65272;BMP280;51868;48.812;8.198;2023-04-24T19:03:22;99903.31;;;12.46
65272;BMP280;51868;48.812;8.198;2023-04-24T19:05:50;99912.91;;;12.43
65272;BMP280;51868;48.812;8.198;2023-04-24T19:08:18;99908.59;;;12.38
65272;BMP280;51868;48.812;8.198;2023-04-24T19:10:47;99913.44;;;12.38
65272;BMP280;51868;48.812;8.198;2023-04-24T19:13:14;99921.72;;;12.36
65272;BMP280;51868;48.812;8.198;2023-04-24T19:15:49;99925.72;;;12.31
65272;BMP280;51868;48.812;8.198;2023-04-24T19:18:16;99931.22;;;12.28
65272;BMP280;51868;48.812;8.198;2023-04-24T19:20:56;99941.56;;;12.26
65272;BMP280;51868;48.812;8.198;2023-04-24T19:23:33;99937.22;;;12.21
65272;BMP280;51868;48.812;8.198;2023-04-24T19:26:11;99942.00;;;12.18
65272;BMP280;51868;48.812;8.198;2023-04-24T19:28:41;99940.72;;;12.21
65272;BMP280;51868;48.812;8.198;2023-04-24T19:31:18;99945.69;;;12.25
65272;BMP280;51868;48.812;8.198;2023-04-24T19:34:04;99940.84;;;12.25
65272;BMP280;51868;48.812;8.198;2023-04-24T19:36:32;99943.72;;;12.27
65272;BMP280;51868;48.812;8.198;2023-04-24T19:39:01;99944.47;;;12.30
65272;BMP280;51868;48.812;8.198;2023-04-24T19:41:30;99944.56;;;12.32
65272;BMP280;51868;48.812;8.198;2023-04-24T19:43:58;99943.81;;;12.32
65272;BMP280;51868;48.812;8.198;2023-04-24T19:46:26;99943.91;;;12.34
65272;BMP280;51868;48.812;8.198;2023-04-24T19:48:59;99944.63;;;12.34
65272;BMP280;51868;48.812;8.198;2023-04-24T19:51:27;99944.00;;;12.36
65272;BMP280;51868;48.812;8.198;2023-04-24T19:53:55;99944.69;;;12.36
65272;BMP280;51868;48.812;8.198;2023-04-24T19:56:23;99934.22;;;12.35
65272;BMP280;51868;48.812;8.198;2023-04-24T19:58:52;99942.56;;;12.35